sensor_id;sensor_type;location;lat;lon;timestamp;temperature;humidity
44215;DHT22;29884;47.450;19.124;2023-09-30T00:02:11;14.40;99.90
44215;DHT22;29884;47.450;19.124;2023-09-30T00:04:38;14.40;99.90
44215;DHT22;29884;47.450;19.124;2023-09-30T00:07:04;14.40;99.90
44215;DHT22;29884;47.450;19.124;2023-09-30T00:09:30;14.50;99.90
44215;DHT22;29884;47.450;19.124;2023-09-30T00:11:56;14.40;99.90
44215;DHT22;29884;47.450;19.124;2023-09-30T00:14:22;14.40;99.90
44215;DHT22;29884;47.450;19.124;2023-09-30T00:16:47;14.40;99.90
44215;DHT22;29884;47.450;19.124;2023-09-30T00:19:13;14.40;99.90
44215;DHT22;29884;47.450;19.124;2023-09-30T00:21:39;14.40;99.90
44215;DHT22;29884;47.450;19.124;2023-09-30T00:24:05;14.30;99.90
44215;DHT22;29884;47.450;19.124;2023-09-30T00:26:31;14.30;99.90
44215;DHT22;29884;47.450;19.124;2023-09-30T00:28:56;14.30;99.90
44215;DHT22;29884;47.450;19.124;2023-09-30T00:31:22;14.30;99.90
44215;DHT22;29884;47.450;19.124;2023-09-30T00:33:48;14.30;99.90
44215;DHT22;29884;47.450;19.124;2023-09-30T00:36:14;14.20;99.90
44215;DHT22;29884;47.450;19.124;2023-09-30T00:38:40;14.20;99.90
44215;DHT22;29884;47.450;19.124;2023-09-30T00:41:06;14.30;99.90
44215;DHT22;29884;47.450;19.124;2023-09-30T00:43:34;14.20;99.90
44215;DHT22;29884;47.450;19.124;2023-09-30T00:46:26;14.20;99.90
44215;DHT22;29884;47.450;19.124;2023-09-30T00:48:53;14.20;99.90
44215;DHT22;29884;47.450;19.124;2023-09-30T00:51:19;14.20;99.90
44215;DHT22;29884;47.450;19.124;2023-09-30T00:53:45;14.10;99.90
44215;DHT22;29884;47.450;19.124;2023-09-30T00:56:11;14.10;99.90
44215;DHT22;29884;47.450;19.124;2023-09-30T00:58:38;14.10;99.90
44215;DHT22;29884;47.450;19.124;2023-09-30T01:01:04;14.00;99.90
44215;DHT22;29884;47.450;19.124;2023-09-30T01:03:30;14.10;99.90
44215;DHT22;29884;47.450;19.124;2023-09-30T01:05:56;14.10;99.90
44215;DHT22;29884;47.450;19.124;2023-09-30T01:08:21;14.20;99.90
44215;DHT22;29884;47.450;19.124;2023-09-30T01:10:48;14.10;99.90
44215;DHT22;29884;47.450;19.124;2023-09-30T01:13:14;14.10;99.90
44215;DHT22;29884;47.450;19.124;2023-09-30T01:15:39;14.10;99.90
44215;DHT22;29884;47.450;19.124;2023-09-30T01:18:05;14.20;99.90
44215;DHT22;29884;47.450;19.124;2023-09-30T01:20:31;14.10;99.90
44215;DHT22;29884;47.450;19.124;2023-09-30T01:22:57;14.10;99.90
44215;DHT22;29884;47.450;19.124;2023-09-30T01:25:26;14.00;99.90
44215;DHT22;29884;47.450;19.124;2023-09-30T01:27:53;13.90;99.90
44215;DHT22;29884;47.450;19.124;2023-09-30T01:30:19;13.90;99.90
44215;DHT22;29884;47.450;19.124;2023-09-30T01:32:47;14.00;99.90
44215;DHT22;29884;47.450;19.124;2023-09-30T01:35:13;14.00;99.90
44215;DHT22;29884;47.450;19.124;2023-09-30T01:37:39;14.00;99.90
44215;DHT22;29884;47.450;19.124;2023-09-30T01:40:06;14.00;99.90
44215;DHT22;29884;47.450;19.124;2023-09-30T01:42:37;14.00;99.90
44215;DHT22;29884;47.450;19.124;2023-09-30T01:45:03;14.00;99.90
44215;DHT22;29884;47.450;19.124;2023-09-30T01:47:29;13.90;99.90
44215;DHT22;29884;47.450;19.124;2023-09-30T01:49:55;13.90;99.90
44215;DHT22;29884;47.450;19.124;2023-09-30T01:52:21;13.90;99.90
44215;DHT22;29884;47.450;19.124;2023-09-30T01:54:46;13.90;99.90
44215;DHT22;29884;47.450;19.124;2023-09-30T01:57:13;14.00;99.90
44215;DHT22;29884;47.450;19.124;2023-09-30T01:59:39;14.00;99.90
44215;DHT22;29884;47.450;19.124;2023-09-30T02:02:04;14.00;99.90
44215;DHT22;29884;47.450;19.124;2023-09-30T02:04:30;14.10;99.90
44215;DHT22;29884;47.450;19.124;2023-09-30T02:06:56;14.00;99.90
44215;DHT22;29884;47.450;19.124;2023-09-30T02:09:22;14.00;99.90
44215;DHT22;29884;47.450;19.124;2023-09-30T02:11:47;14.00;99.90
44215;DHT22;29884;47.450;19.124;2023-09-30T02:14:13;14.00;99.90
44215;DHT22;29884;47.450;19.124;2023-09-30T02:16:39;13.90;99.90
44215;DHT22;29884;47.450;19.124;2023-09-30T02:19:05;13.90;99.90
44215;DHT22;29884;47.450;19.124;2023-09-30T02:21:32;13.90;99.90
44215;DHT22;29884;47.450;19.124;2023-09-30T02:23:57;13.90;99.90
44215;DHT22;29884;47.450;19.124;2023-09-30T02:26:23;13.90;99.90
44215;DHT22;29884;47.450;19.124;2023-09-30T02:28:51;13.90;99.90
44215;DHT22;29884;47.450;19.124;2023-09-30T02:31:18;13.90;99.90
44215;DHT22;29884;47.450;19.124;2023-09-30T02:33:44;14.00;99.90
44215;DHT22;29884;47.450;19.124;2023-09-30T02:36:09;14.00;99.90
44215;DHT22;29884;47.450;19.124;2023-09-30T02:38:35;13.90;99.90
44215;DHT22;29884;47.450;19.124;2023-09-30T02:41:04;13.90;99.90
44215;DHT22;29884;47.450;19.124;2023-09-30T02:43:30;13.90;99.90
44215;DHT22;29884;47.450;19.124;2023-09-30T02:45:56;13.90;99.90
44215;DHT22;29884;47.450;19.124;2023-09-30T02:48:22;13.80;99.90
44215;DHT22;29884;47.450;19.124;2023-09-30T02:50:48;13.80;99.90
44215;DHT22;29884;47.450;19.124;2023-09-30T02:53:14;13.80;99.90
44215;DHT22;29884;47.450;19.124;2023-09-30T02:55:40;13.90;99.90
44215;DHT22;29884;47.450;19.124;2023-09-30T02:58:09;13.90;99.90
44215;DHT22;29884;47.450;19.124;2023-09-30T03:00:35;13.90;99.90
44215;DHT22;29884;47.450;19.124;2023-09-30T03:03:03;13.90;99.90
44215;DHT22;29884;47.450;19.124;2023-09-30T03:05:30;13.80;99.90
44215;DHT22;29884;47.450;19.124;2023-09-30T03:07:59;13.80;99.90
44215;DHT22;29884;47.450;19.124;2023-09-30T03:10:26;13.80;99.90
44215;DHT22;29884;47.450;19.124;2023-09-30T03:12:56;13.80;99.90
44215;DHT22;29884;47.450;19.124;2023-09-30T03:15:27;13.80;99.90
44215;DHT22;29884;47.450;19.124;2023-09-30T03:17:54;13.80;99.90
44215;DHT22;29884;47.450;19.124;2023-09-30T03:20:21;13.80;99.90
44215;DHT22;29884;47.450;19.124;2023-09-30T03:22:47;13.70;99.90
44215;DHT22;29884;47.450;19.124;2023-09-30T03:25:15;13.70;99.90
44215;DHT22;29884;47.450;19.124;2023-09-30T03:27:43;13.70;99.90
44215;DHT22;29884;47.450;19.124;2023-09-30T03:30:10;13.60;99.90
44215;DHT22;29884;47.450;19.124;2023-09-30T03:32:37;13.60;99.90
44215;DHT22;29884;47.450;19.124;2023-09-30T03:35:05;13.60;99.90
44215;DHT22;29884;47.450;19.124;2023-09-30T03:37:31;13.60;99.90
44215;DHT22;29884;47.450;19.124;2023-09-30T03:39:57;13.60;99.90
44215;DHT22;29884;47.450;19.124;2023-09-30T03:42:23;13.60;99.90
44215;DHT22;29884;47.450;19.124;2023-09-30T03:44:50;13.70;99.90
44215;DHT22;29884;47.450;19.124;2023-09-30T03:47:18;13.60;99.90
44215;DHT22;29884;47.450;19.124;2023-09-30T03:49:44;13.60;99.90
44215;DHT22;29884;47.450;19.124;2023-09-30T03:52:10;13.70;99.90
44215;DHT22;29884;47.450;19.124;2023-09-30T03:54:36;13.60;99.90
44215;DHT22;29884;47.450;19.124;2023-09-30T03:57:03;13.60;99.90
44215;DHT22;29884;47.450;19.124;2023-09-30T03:59:29;13.60;99.90
44215;DHT22;29884;47.450;19.124;2023-09-30T04:01:56;13.60;99.90
44215;DHT22;29884;47.450;19.124;2023-09-30T04:04:23;13.60;99.90
44215;DHT22;29884;47.450;19.124;2023-09-30T04:06:49;13.40;99.90
44215;DHT22;29884;47.450;19.124;2023-09-30T04:09:17;13.40;99.90
44215;DHT22;29884;47.450;19.124;2023-09-30T04:11:43;13.40;99.90
44215;DHT22;29884;47.450;19.124;2023-09-30T04:14:09;13.50;99.90
44215;DHT22;29884;47.450;19.124;2023-09-30T04:16:36;13.50;99.90
44215;DHT22;29884;47.450;19.124;2023-09-30T04:19:03;13.50;99.90
44215;DHT22;29884;47.450;19.124;2023-09-30T04:21:29;13.50;99.90
44215;DHT22;29884;47.450;19.124;2023-09-30T04:23:59;13.50;99.90
44215;DHT22;29884;47.450;19.124;2023-09-30T04:26:24;13.50;99.90
44215;DHT22;29884;47.450;19.124;2023-09-30T04:28:51;13.50;99.90
44215;DHT22;29884;47.450;19.124;2023-09-30T04:31:16;13.50;99.90
44215;DHT22;29884;47.450;19.124;2023-09-30T04:33:43;13.50;99.90
44215;DHT22;29884;47.450;19.124;2023-09-30T04:36:09;13.50;99.90
44215;DHT22;29884;47.450;19.124;2023-09-30T04:38:36;13.40;99.90
44215;DHT22;29884;47.450;19.124;2023-09-30T04:41:05;13.40;99.90
44215;DHT22;29884;47.450;19.124;2023-09-30T04:43:33;13.40;99.90
44215;DHT22;29884;47.450;19.124;2023-09-30T04:45:59;13.30;99.90
44215;DHT22;29884;47.450;19.124;2023-09-30T04:48:25;13.30;99.90
44215;DHT22;29884;47.450;19.124;2023-09-30T04:50:50;13.40;99.90
44215;DHT22;29884;47.450;19.124;2023-09-30T04:53:20;13.40;99.90
44215;DHT22;29884;47.450;19.124;2023-09-30T04:55:48;13.40;99.90
44215;DHT22;29884;47.450;19.124;2023-09-30T04:58:17;13.30;99.90
44215;DHT22;29884;47.450;19.124;2023-09-30T05:00:43;13.30;99.90
44215;DHT22;29884;47.450;19.124;2023-09-30T05:03:09;13.30;99.90
44215;DHT22;29884;47.450;19.124;2023-09-30T05:05:34;13.40;99.90
44215;DHT22;29884;47.450;19.124;2023-09-30T05:08:01;13.40;99.90
44215;DHT22;29884;47.450;19.124;2023-09-30T05:10:27;13.40;99.90
44215;DHT22;29884;47.450;19.124;2023-09-30T05:12:52;13.50;99.90
44215;DHT22;29884;47.450;19.124;2023-09-30T05:15:20;13.50;99.90
44215;DHT22;29884;47.450;19.124;2023-09-30T05:17:47;13.50;99.90
44215;DHT22;29884;47.450;19.124;2023-09-30T05:20:13;13.50;99.90
44215;DHT22;29884;47.450;19.124;2023-09-30T05:22:40;13.50;99.90
44215;DHT22;29884;47.450;19.124;2023-09-30T05:25:14;13.60;99.90
44215;DHT22;29884;47.450;19.124;2023-09-30T05:27:44;13.60;99.90
44215;DHT22;29884;47.450;19.124;2023-09-30T05:30:10;13.70;99.90
44215;DHT22;29884;47.450;19.124;2023-09-30T05:32:40;13.80;99.90
44215;DHT22;29884;47.450;19.124;2023-09-30T05:35:06;13.90;99.90
44215;DHT22;29884;47.450;19.124;2023-09-30T05:37:42;14.00;99.90
44215;DHT22;29884;47.450;19.124;2023-09-30T05:40:09;14.10;99.90
44215;DHT22;29884;47.450;19.124;2023-09-30T05:42:47;14.20;99.90
44215;DHT22;29884;47.450;19.124;2023-09-30T05:45:14;14.30;99.90
44215;DHT22;29884;47.450;19.124;2023-09-30T05:47:41;14.40;99.90
44215;DHT22;29884;47.450;19.124;2023-09-30T05:50:07;14.50;99.90
44215;DHT22;29884;47.450;19.124;2023-09-30T05:52:34;14.60;99.90
44215;DHT22;29884;47.450;19.124;2023-09-30T05:55:02;14.80;99.90
44215;DHT22;29884;47.450;19.124;2023-09-30T05:57:28;14.80;99.90
44215;DHT22;29884;47.450;19.124;2023-09-30T05:59:54;14.90;99.90
44215;DHT22;29884;47.450;19.124;2023-09-30T06:02:20;15.00;99.90
44215;DHT22;29884;47.450;19.124;2023-09-30T06:04:45;15.10;99.90
44215;DHT22;29884;47.450;19.124;2023-09-30T06:07:12;15.20;99.90
44215;DHT22;29884;47.450;19.124;2023-09-30T06:09:38;15.30;99.90
44215;DHT22;29884;47.450;19.124;2023-09-30T06:12:04;15.40;99.90
44215;DHT22;29884;47.450;19.124;2023-09-30T06:14:32;15.60;99.90
44215;DHT22;29884;47.450;19.124;2023-09-30T06:16:58;15.70;99.90
44215;DHT22;29884;47.450;19.124;2023-09-30T06:19:24;15.80;99.90
44215;DHT22;29884;47.450;19.124;2023-09-30T06:21:51;15.90;99.90
44215;DHT22;29884;47.450;19.124;2023-09-30T06:24:17;16.00;99.90
44215;DHT22;29884;47.450;19.124;2023-09-30T06:26:45;16.10;99.90
44215;DHT22;29884;47.450;19.124;2023-09-30T06:29:14;16.20;99.90
44215;DHT22;29884;47.450;19.124;2023-09-30T06:31:40;16.40;99.90
44215;DHT22;29884;47.450;19.124;2023-09-30T06:34:05;16.50;99.90
44215;DHT22;29884;47.450;19.124;2023-09-30T06:36:32;16.60;99.90
44215;DHT22;29884;47.450;19.124;2023-09-30T06:38:58;16.70;99.90
44215;DHT22;29884;47.450;19.124;2023-09-30T06:41:24;16.90;99.90
44215;DHT22;29884;47.450;19.124;2023-09-30T06:43:51;16.90;99.90
44215;DHT22;29884;47.450;19.124;2023-09-30T06:46:17;17.00;99.90
44215;DHT22;29884;47.450;19.124;2023-09-30T06:48:43;17.20;99.90
44215;DHT22;29884;47.450;19.124;2023-09-30T06:51:14;17.30;99.90
44215;DHT22;29884;47.450;19.124;2023-09-30T06:53:42;17.40;99.90
44215;DHT22;29884;47.450;19.124;2023-09-30T06:56:08;17.60;99.90
44215;DHT22;29884;47.450;19.124;2023-09-30T06:58:34;17.70;99.90
44215;DHT22;29884;47.450;19.124;2023-09-30T07:01:00;17.80;99.90
44215;DHT22;29884;47.450;19.124;2023-09-30T07:03:26;17.90;99.90
44215;DHT22;29884;47.450;19.124;2023-09-30T07:05:52;17.90;99.90
44215;DHT22;29884;47.450;19.124;2023-09-30T07:08:19;18.00;99.90
44215;DHT22;29884;47.450;19.124;2023-09-30T07:10:47;18.00;99.90
44215;DHT22;29884;47.450;19.124;2023-09-30T07:13:16;18.00;99.90
44215;DHT22;29884;47.450;19.124;2023-09-30T07:15:42;18.10;99.90
44215;DHT22;29884;47.450;19.124;2023-09-30T07:18:08;18.10;99.90
44215;DHT22;29884;47.450;19.124;2023-09-30T07:20:34;18.20;99.90
44215;DHT22;29884;47.450;19.124;2023-09-30T07:23:00;18.20;99.90
44215;DHT22;29884;47.450;19.124;2023-09-30T07:25:29;18.20;99.90
44215;DHT22;29884;47.450;19.124;2023-09-30T07:27:58;18.20;99.90
44215;DHT22;29884;47.450;19.124;2023-09-30T07:30:25;18.30;99.90
44215;DHT22;29884;47.450;19.124;2023-09-30T07:32:50;18.30;99.90
44215;DHT22;29884;47.450;19.124;2023-09-30T07:35:17;18.30;99.90
44215;DHT22;29884;47.450;19.124;2023-09-30T07:37:44;18.40;99.90
44215;DHT22;29884;47.450;19.124;2023-09-30T07:40:12;18.40;99.90
44215;DHT22;29884;47.450;19.124;2023-09-30T07:42:38;18.50;99.90
44215;DHT22;29884;47.450;19.124;2023-09-30T07:45:04;18.50;99.90
44215;DHT22;29884;47.450;19.124;2023-09-30T07:47:30;18.60;99.90
44215;DHT22;29884;47.450;19.124;2023-09-30T07:50:00;18.60;99.90
44215;DHT22;29884;47.450;19.124;2023-09-30T07:52:28;18.70;99.90
44215;DHT22;29884;47.450;19.124;2023-09-30T07:54:53;18.80;99.90
44215;DHT22;29884;47.450;19.124;2023-09-30T07:57:19;18.90;99.90
44215;DHT22;29884;47.450;19.124;2023-09-30T07:59:46;19.00;99.90
44215;DHT22;29884;47.450;19.124;2023-09-30T08:02:11;19.30;99.90
44215;DHT22;29884;47.450;19.124;2023-09-30T08:04:37;19.30;99.90
44215;DHT22;29884;47.450;19.124;2023-09-30T08:07:03;19.40;99.90
44215;DHT22;29884;47.450;19.124;2023-09-30T08:09:28;19.60;99.90
44215;DHT22;29884;47.450;19.124;2023-09-30T08:11:54;19.60;99.90
44215;DHT22;29884;47.450;19.124;2023-09-30T08:14:21;19.70;99.90
44215;DHT22;29884;47.450;19.124;2023-09-30T08:16:47;19.80;99.90
44215;DHT22;29884;47.450;19.124;2023-09-30T08:19:14;19.90;99.90
44215;DHT22;29884;47.450;19.124;2023-09-30T08:21:40;20.00;99.90
44215;DHT22;29884;47.450;19.124;2023-09-30T08:24:06;20.20;99.90
44215;DHT22;29884;47.450;19.124;2023-09-30T08:26:32;20.40;99.90
44215;DHT22;29884;47.450;19.124;2023-09-30T08:28:59;20.60;99.90
44215;DHT22;29884;47.450;19.124;2023-09-30T08:31:24;20.80;99.90
44215;DHT22;29884;47.450;19.124;2023-09-30T08:33:50;20.80;99.90
44215;DHT22;29884;47.450;19.124;2023-09-30T08:36:16;20.80;99.90
44215;DHT22;29884;47.450;19.124;2023-09-30T08:38:42;20.90;99.90
44215;DHT22;29884;47.450;19.124;2023-09-30T08:41:09;20.90;99.90
44215;DHT22;29884;47.450;19.124;2023-09-30T08:43:40;20.70;99.90
44215;DHT22;29884;47.450;19.124;2023-09-30T08:46:06;20.70;99.90
44215;DHT22;29884;47.450;19.124;2023-09-30T08:48:33;20.70;99.90
44215;DHT22;29884;47.450;19.124;2023-09-30T08:51:00;20.90;99.90
44215;DHT22;29884;47.450;19.124;2023-09-30T08:53:28;21.00;99.90
44215;DHT22;29884;47.450;19.124;2023-09-30T08:55:56;21.10;99.90
44215;DHT22;29884;47.450;19.124;2023-09-30T08:58:27;21.20;99.90
44215;DHT22;29884;47.450;19.124;2023-09-30T09:00:53;21.40;99.90
44215;DHT22;29884;47.450;19.124;2023-09-30T09:03:19;21.60;99.90
44215;DHT22;29884;47.450;19.124;2023-09-30T09:05:46;21.80;99.90
44215;DHT22;29884;47.450;19.124;2023-09-30T09:08:12;21.80;99.90
44215;DHT22;29884;47.450;19.124;2023-09-30T09:10:58;21.80;99.90
44215;DHT22;29884;47.450;19.124;2023-09-30T09:13:27;22.00;99.90
44215;DHT22;29884;47.450;19.124;2023-09-30T09:16:06;22.10;99.90
44215;DHT22;29884;47.450;19.124;2023-09-30T09:18:33;22.00;99.90
44215;DHT22;29884;47.450;19.124;2023-09-30T09:21:09;21.80;99.90
44215;DHT22;29884;47.450;19.124;2023-09-30T09:23:43;21.70;99.90
44215;DHT22;29884;47.450;19.124;2023-09-30T09:26:22;21.70;99.90
44215;DHT22;29884;47.450;19.124;2023-09-30T09:28:49;21.90;99.90
44215;DHT22;29884;47.450;19.124;2023-09-30T09:31:21;21.90;99.90
44215;DHT22;29884;47.450;19.124;2023-09-30T09:33:49;21.90;99.90
44215;DHT22;29884;47.450;19.124;2023-09-30T09:36:15;21.90;99.90
44215;DHT22;29884;47.450;19.124;2023-09-30T09:38:44;22.00;99.90
44215;DHT22;29884;47.450;19.124;2023-09-30T09:41:10;21.90;99.90
44215;DHT22;29884;47.450;19.124;2023-09-30T09:43:37;21.90;99.90
44215;DHT22;29884;47.450;19.124;2023-09-30T09:46:07;21.90;99.90
44215;DHT22;29884;47.450;19.124;2023-09-30T09:48:35;21.80;99.90
44215;DHT22;29884;47.450;19.124;2023-09-30T09:51:01;21.90;99.90
44215;DHT22;29884;47.450;19.124;2023-09-30T09:53:30;21.90;99.90
44215;DHT22;29884;47.450;19.124;2023-09-30T09:55:59;21.90;99.90
44215;DHT22;29884;47.450;19.124;2023-09-30T09:58:26;21.90;99.90
44215;DHT22;29884;47.450;19.124;2023-09-30T10:00:52;21.90;99.90
44215;DHT22;29884;47.450;19.124;2023-09-30T10:03:18;21.90;99.90
44215;DHT22;29884;47.450;19.124;2023-09-30T10:05:44;22.00;99.90
44215;DHT22;29884;47.450;19.124;2023-09-30T10:08:16;22.00;99.90
44215;DHT22;29884;47.450;19.124;2023-09-30T10:10:44;22.00;99.90
44215;DHT22;29884;47.450;19.124;2023-09-30T10:16:50;22.00;99.90
44215;DHT22;29884;47.450;19.124;2023-09-30T10:19:18;22.00;99.90
44215;DHT22;29884;47.450;19.124;2023-09-30T10:24:41;21.90;99.90
44215;DHT22;29884;47.450;19.124;2023-09-30T10:35:20;22.30;99.90
44215;DHT22;29884;47.450;19.124;2023-09-30T10:37:47;22.30;99.90
44215;DHT22;29884;47.450;19.124;2023-09-30T10:40:30;22.30;99.90
44215;DHT22;29884;47.450;19.124;2023-09-30T10:43:00;22.30;99.90
44215;DHT22;29884;47.450;19.124;2023-09-30T10:51:14;22.30;99.90
44215;DHT22;29884;47.450;19.124;2023-09-30T10:53:45;22.40;99.90
44215;DHT22;29884;47.450;19.124;2023-09-30T10:56:11;22.50;99.90
44215;DHT22;29884;47.450;19.124;2023-09-30T10:58:51;22.50;99.90
44215;DHT22;29884;47.450;19.124;2023-09-30T11:01:21;22.40;99.90
44215;DHT22;29884;47.450;19.124;2023-09-30T11:03:49;22.30;99.90
44215;DHT22;29884;47.450;19.124;2023-09-30T11:06:20;22.20;99.90
44215;DHT22;29884;47.450;19.124;2023-09-30T11:08:52;22.20;99.90
44215;DHT22;29884;47.450;19.124;2023-09-30T11:11:18;22.20;99.90
44215;DHT22;29884;47.450;19.124;2023-09-30T11:13:44;22.10;99.90
44215;DHT22;29884;47.450;19.124;2023-09-30T11:16:10;22.10;99.90
44215;DHT22;29884;47.450;19.124;2023-09-30T11:18:36;22.10;99.90
44215;DHT22;29884;47.450;19.124;2023-09-30T11:21:05;22.00;99.90
44215;DHT22;29884;47.450;19.124;2023-09-30T11:23:32;21.90;99.90
44215;DHT22;29884;47.450;19.124;2023-09-30T11:25:58;21.90;99.90
44215;DHT22;29884;47.450;19.124;2023-09-30T11:28:24;21.70;99.90
44215;DHT22;29884;47.450;19.124;2023-09-30T11:30:59;21.60;99.90
44215;DHT22;29884;47.450;19.124;2023-09-30T11:33:25;21.50;99.90
44215;DHT22;29884;47.450;19.124;2023-09-30T11:36:02;21.40;99.90
44215;DHT22;29884;47.450;19.124;2023-09-30T11:38:30;21.30;99.90
44215;DHT22;29884;47.450;19.124;2023-09-30T11:41:02;21.20;99.90
44215;DHT22;29884;47.450;19.124;2023-09-30T11:43:30;21.10;99.90
44215;DHT22;29884;47.450;19.124;2023-09-30T11:46:09;21.00;99.90
44215;DHT22;29884;47.450;19.124;2023-09-30T11:48:55;20.90;99.90
44215;DHT22;29884;47.450;19.124;2023-09-30T11:51:22;20.90;99.90
44215;DHT22;29884;47.450;19.124;2023-09-30T11:53:52;20.80;99.90
44215;DHT22;29884;47.450;19.124;2023-09-30T11:56:19;20.80;99.90
44215;DHT22;29884;47.450;19.124;2023-09-30T11:58:45;20.80;99.90
44215;DHT22;29884;47.450;19.124;2023-09-30T12:01:14;20.80;99.90
44215;DHT22;29884;47.450;19.124;2023-09-30T12:03:40;20.80;99.90
44215;DHT22;29884;47.450;19.124;2023-09-30T12:06:06;20.80;99.90
44215;DHT22;29884;47.450;19.124;2023-09-30T12:08:32;20.90;99.90
44215;DHT22;29884;47.450;19.124;2023-09-30T12:10:58;20.80;99.90
44215;DHT22;29884;47.450;19.124;2023-09-30T12:13:25;20.80;99.90
44215;DHT22;29884;47.450;19.124;2023-09-30T12:15:51;20.80;99.90
44215;DHT22;29884;47.450;19.124;2023-09-30T12:18:19;20.80;99.90
44215;DHT22;29884;47.450;19.124;2023-09-30T12:20:50;20.70;99.90
44215;DHT22;29884;47.450;19.124;2023-09-30T12:23:17;20.60;99.90
44215;DHT22;29884;47.450;19.124;2023-09-30T12:25:43;20.60;99.90
44215;DHT22;29884;47.450;19.124;2023-09-30T12:28:09;20.50;99.90
44215;DHT22;29884;47.450;19.124;2023-09-30T12:30:35;20.50;99.90
44215;DHT22;29884;47.450;19.124;2023-09-30T12:33:01;20.50;99.90
44215;DHT22;29884;47.450;19.124;2023-09-30T12:35:27;20.50;99.90
44215;DHT22;29884;47.450;19.124;2023-09-30T12:37:52;20.50;99.90
44215;DHT22;29884;47.450;19.124;2023-09-30T12:40:18;20.40;99.90
44215;DHT22;29884;47.450;19.124;2023-09-30T12:42:44;20.40;99.90
44215;DHT22;29884;47.450;19.124;2023-09-30T12:45:13;20.40;99.90
44215;DHT22;29884;47.450;19.124;2023-09-30T12:47:39;20.40;99.90
44215;DHT22;29884;47.450;19.124;2023-09-30T12:50:05;20.40;99.90
44215;DHT22;29884;47.450;19.124;2023-09-30T12:52:34;20.40;99.90
44215;DHT22;29884;47.450;19.124;2023-09-30T12:55:00;20.40;99.90
44215;DHT22;29884;47.450;19.124;2023-09-30T12:57:26;20.40;99.90
44215;DHT22;29884;47.450;19.124;2023-09-30T12:59:51;20.40;99.90
44215;DHT22;29884;47.450;19.124;2023-09-30T13:02:19;20.40;99.90
44215;DHT22;29884;47.450;19.124;2023-09-30T13:04:45;20.40;99.90
44215;DHT22;29884;47.450;19.124;2023-09-30T13:07:12;20.30;99.90
44215;DHT22;29884;47.450;19.124;2023-09-30T13:09:41;20.30;99.90
44215;DHT22;29884;47.450;19.124;2023-09-30T13:12:07;20.30;99.90
44215;DHT22;29884;47.450;19.124;2023-09-30T13:14:33;20.40;99.90
44215;DHT22;29884;47.450;19.124;2023-09-30T13:16:59;20.30;99.90
44215;DHT22;29884;47.450;19.124;2023-09-30T13:19:25;20.30;99.90
44215;DHT22;29884;47.450;19.124;2023-09-30T13:21:51;20.30;99.90
44215;DHT22;29884;47.450;19.124;2023-09-30T13:24:19;20.40;99.90
44215;DHT22;29884;47.450;19.124;2023-09-30T13:26:45;20.40;99.90
44215;DHT22;29884;47.450;19.124;2023-09-30T13:29:11;20.50;99.90
44215;DHT22;29884;47.450;19.124;2023-09-30T13:31:38;20.50;99.90
44215;DHT22;29884;47.450;19.124;2023-09-30T13:34:05;20.60;99.90
44215;DHT22;29884;47.450;19.124;2023-09-30T13:36:32;20.60;99.90
44215;DHT22;29884;47.450;19.124;2023-09-30T13:38:57;20.60;99.90
44215;DHT22;29884;47.450;19.124;2023-09-30T13:41:23;20.60;99.90
44215;DHT22;29884;47.450;19.124;2023-09-30T13:43:49;20.70;99.90
44215;DHT22;29884;47.450;19.124;2023-09-30T13:46:14;20.90;99.90
44215;DHT22;29884;47.450;19.124;2023-09-30T13:48:41;21.00;99.90
44215;DHT22;29884;47.450;19.124;2023-09-30T13:51:10;21.00;99.90
44215;DHT22;29884;47.450;19.124;2023-09-30T13:53:36;21.10;99.90
44215;DHT22;29884;47.450;19.124;2023-09-30T13:56:02;21.20;99.90
44215;DHT22;29884;47.450;19.124;2023-09-30T13:58:31;21.30;99.90
44215;DHT22;29884;47.450;19.124;2023-09-30T14:00:56;21.60;99.90
44215;DHT22;29884;47.450;19.124;2023-09-30T14:03:22;21.90;99.90
44215;DHT22;29884;47.450;19.124;2023-09-30T14:05:50;22.10;99.90
44215;DHT22;29884;47.450;19.124;2023-09-30T14:08:16;22.30;99.90
44215;DHT22;29884;47.450;19.124;2023-09-30T14:10:42;22.30;99.90
44215;DHT22;29884;47.450;19.124;2023-09-30T14:13:10;22.30;99.90
44215;DHT22;29884;47.450;19.124;2023-09-30T14:15:36;22.30;99.90
44215;DHT22;29884;47.450;19.124;2023-09-30T14:18:03;22.20;99.90
44215;DHT22;29884;47.450;19.124;2023-09-30T14:20:29;22.10;99.90
44215;DHT22;29884;47.450;19.124;2023-09-30T14:22:54;21.90;99.90
44215;DHT22;29884;47.450;19.124;2023-09-30T14:25:21;21.70;99.90
44215;DHT22;29884;47.450;19.124;2023-09-30T14:27:48;21.60;99.90
44215;DHT22;29884;47.450;19.124;2023-09-30T14:30:14;21.50;99.90
44215;DHT22;29884;47.450;19.124;2023-09-30T14:32:40;21.50;99.90
44215;DHT22;29884;47.450;19.124;2023-09-30T14:35:06;21.60;99.90
44215;DHT22;29884;47.450;19.124;2023-09-30T14:37:32;21.60;99.90
44215;DHT22;29884;47.450;19.124;2023-09-30T14:39:58;21.70;99.90
44215;DHT22;29884;47.450;19.124;2023-09-30T14:42:24;21.70;99.90
44215;DHT22;29884;47.450;19.124;2023-09-30T14:44:49;21.80;99.90
44215;DHT22;29884;47.450;19.124;2023-09-30T14:47:15;22.00;99.90
44215;DHT22;29884;47.450;19.124;2023-09-30T14:49:41;22.10;99.90
44215;DHT22;29884;47.450;19.124;2023-09-30T14:52:07;22.20;99.90
44215;DHT22;29884;47.450;19.124;2023-09-30T14:54:35;22.20;99.90
44215;DHT22;29884;47.450;19.124;2023-09-30T14:57:01;22.10;99.90
44215;DHT22;29884;47.450;19.124;2023-09-30T14:59:32;22.20;99.90
44215;DHT22;29884;47.450;19.124;2023-09-30T15:01:58;22.20;99.90
44215;DHT22;29884;47.450;19.124;2023-09-30T15:04:24;22.20;99.90
44215;DHT22;29884;47.450;19.124;2023-09-30T15:06:50;22.10;99.90
44215;DHT22;29884;47.450;19.124;2023-09-30T15:09:16;22.10;99.90
44215;DHT22;29884;47.450;19.124;2023-09-30T15:11:42;22.00;99.90
44215;DHT22;29884;47.450;19.124;2023-09-30T15:14:07;21.90;99.90
44215;DHT22;29884;47.450;19.124;2023-09-30T15:16:33;21.80;99.90
44215;DHT22;29884;47.450;19.124;2023-09-30T15:19:00;21.70;99.90
44215;DHT22;29884;47.450;19.124;2023-09-30T15:21:26;21.70;99.90
44215;DHT22;29884;47.450;19.124;2023-09-30T15:23:51;21.60;99.90
44215;DHT22;29884;47.450;19.124;2023-09-30T15:26:18;21.60;99.90
44215;DHT22;29884;47.450;19.124;2023-09-30T15:28:43;21.50;99.90
44215;DHT22;29884;47.450;19.124;2023-09-30T15:31:13;21.50;99.90
44215;DHT22;29884;47.450;19.124;2023-09-30T15:33:39;21.50;99.90
44215;DHT22;29884;47.450;19.124;2023-09-30T15:36:15;21.40;99.90